Time;durP1;ratioP1;P1;durP2;ratioP2;P2;SDS_P1;SDS_P2;PMS_P1;PMS_P2;Temp;Humidity;BMP_temperature;BMP_pressure;BME280_temperature;BME280_humidity;BME280_pressure;Samples;Min_cycle;Max_cycle;Signal;HPM_P1;HPM_P2
2023/09/08 00:02:25;;;;;;;14.60;7.68;;;;;;;15.41;100.00;101541.94;4931117;28;20047;-61
2023/09/08 00:04:52;;;;;;;16.65;8.68;;;;;;;15.40;100.00;101541.09;4930537;28;20099;-61
2023/09/08 00:07:20;;;;;;;15.88;8.65;;;;;;;15.34;100.00;101532.81;4931671;29;20095;-62
2023/09/08 00:09:49;;;;;;;14.68;7.97;;;;;;;15.33;100.00;101536.50;4930448;29;20055;-62
2023/09/08 00:12:17;;;;;;;16.83;8.63;;;;;;;15.28;100.00;101531.63;4931053;29;20043;-63
2023/09/08 00:14:44;;;;;;;16.25;8.50;;;;;;;15.24;100.00;101524.88;4931075;29;20056;-64
2023/09/08 00:17:10;;;;;;;14.45;8.30;;;;;;;15.22;100.00;101530.47;4931935;29;20048;-63
2023/09/08 00:19:38;;;;;;;13.75;8.25;;;;;;;15.32;100.00;101535.66;4932274;29;20083;-64
2023/09/08 00:22:07;;;;;;;13.63;8.82;;;;;;;15.17;100.00;101529.28;4929055;29;20051;-65
2023/09/08 00:24:34;;;;;;;15.73;8.73;;;;;;;15.07;100.00;101523.22;4934149;29;20499;-64
2023/09/08 00:27:01;;;;;;;14.57;8.65;;;;;;;15.05;100.00;101517.13;4933263;29;20044;-67
2023/09/08 00:29:27;;;;;;;18.63;8.98;;;;;;;15.05;100.00;101519.81;4934299;29;20047;-65
2023/09/08 00:31:54;;;;;;;15.73;9.10;;;;;;;15.05;100.00;101523.41;4934647;28;20075;-65
2023/09/08 00:34:21;;;;;;;15.65;7.68;;;;;;;15.06;100.00;101516.97;4933372;29;20061;-64
2023/09/08 00:36:47;;;;;;;17.83;8.30;;;;;;;15.04;100.00;101516.28;4934035;29;20080;-65
2023/09/08 00:39:14;;;;;;;15.23;8.32;;;;;;;14.97;100.00;101521.53;4934422;29;20104;-65
2023/09/08 00:41:40;;;;;;;25.88;8.65;;;;;;;14.95;100.00;101514.63;4933620;28;20052;-59
2023/09/08 00:44:08;;;;;;;15.20;8.68;;;;;;;14.93;100.00;101519.34;4936006;28;20043;-61
2023/09/08 00:46:35;;;;;;;16.30;8.27;;;;;;;14.88;100.00;101511.75;4935488;29;20074;-59
2023/09/08 00:49:02;;;;;;;14.93;7.90;;;;;;;14.89;100.00;101516.13;4918663;28;20488;-60
2023/09/08 00:51:30;;;;;;;17.13;8.68;;;;;;;14.81;100.00;101512.56;4935861;29;20118;-59
2023/09/08 00:53:56;;;;;;;13.25;9.10;;;;;;;14.74;100.00;101515.97;4934971;29;20048;-59
2023/09/08 00:56:23;;;;;;;20.17;8.85;;;;;;;14.69;100.00;101517.44;4935196;28;20522;-59
2023/09/08 00:58:50;;;;;;;14.27;9.00;;;;;;;14.74;100.00;101509.72;4934424;29;20154;-60
2023/09/08 01:01:17;;;;;;;13.18;8.60;;;;;;;14.72;100.00;101501.78;4934823;29;20063;-62
2023/09/08 01:03:44;;;;;;;19.08;8.75;;;;;;;14.65;100.00;101508.84;4933549;29;20055;-62
2023/09/08 01:10:03;;;;;;;17.73;8.77;;;;;;;14.66;100.00;101505.13;4933899;29;20412;-61
2023/09/08 01:12:30;;;;;;;14.85;8.90;;;;;;;14.57;100.00;101506.13;4933963;29;20526;-61
2023/09/08 01:14:56;;;;;;;14.05;8.95;;;;;;;14.60;100.00;101504.94;4934350;29;20051;-60
2023/09/08 01:17:23;;;;;;;13.63;8.93;;;;;;;14.53;100.00;101500.22;4934226;29;20134;-61
2023/09/08 01:19:54;;;;;;;16.65;8.27;;;;;;;14.60;100.00;101500.41;4935385;29;20477;-61
2023/09/08 01:22:24;;;;;;;16.35;9.27;;;;;;;14.51;100.00;101491.44;4934731;28;20488;-61
2023/09/08 01:25:03;;;;;;;12.63;9.05;;;;;;;14.46;100.00;101485.72;4934918;29;20118;-61
2023/09/08 01:27:33;;;;;;;17.75;9.15;;;;;;;14.51;100.00;101496.00;4933801;29;20155;-61
2023/09/08 01:30:05;;;;;;;17.60;8.77;;;;;;;14.46;100.00;101480.31;4933210;29;20048;-61
2023/09/08 01:32:33;;;;;;;14.82;8.90;;;;;;;14.51;100.00;101487.91;4933686;29;20051;-65
2023/09/08 01:35:00;;;;;;;16.40;9.10;;;;;;;14.51;100.00;101488.75;4932285;29;20425;-65
2023/09/08 01:37:28;;;;;;;17.23;8.80;;;;;;;14.53;100.00;101489.44;4934341;29;20052;-65
2023/09/08 01:39:54;;;;;;;14.93;8.77;;;;;;;14.46;100.00;101491.13;4932833;29;20444;-66
2023/09/08 01:42:21;;;;;;;14.38;9.48;;;;;;;14.52;100.00;101484.19;4934029;29;20095;-65
2023/09/08 01:44:47;;;;;;;10.80;8.02;;;;;;;14.44;100.00;101482.31;4934314;29;20079;-65
2023/09/08 01:47:15;;;;;;;14.70;8.68;;;;;;;14.44;100.00;101489.59;4933280;29;20103;-64
2023/09/08 01:49:42;;;;;;;17.70;9.32;;;;;;;14.55;100.00;101481.16;4932601;29;20943;-64
2023/09/08 01:52:08;;;;;;;18.05;8.88;;;;;;;14.50;100.00;101483.53;4932997;29;20066;-65
2023/09/08 01:54:36;;;;;;;17.35;9.02;;;;;;;14.55;100.00;101483.84;4932022;29;20055;-65
2023/09/08 01:57:02;;;;;;;13.63;8.70;;;;;;;14.60;100.00;101477.94;4932752;29;20043;-65
2023/09/08 01:59:29;;;;;;;14.80;8.80;;;;;;;14.61;100.00;101479.66;4931122;29;20492;-64
2023/09/08 02:01:55;;;;;;;13.25;8.27;;;;;;;14.57;100.00;101476.44;4933340;29;20047;-64
2023/09/08 02:04:23;;;;;;;14.48;8.30;;;;;;;14.50;100.00;101475.44;4932870;29;20079;-65
2023/09/08 02:06:49;;;;;;;20.17;9.27;;;;;;;14.56;100.00;101474.72;4934356;29;20500;-60
2023/09/08 02:09:16;;;;;;;14.05;8.55;;;;;;;14.62;100.00;101474.06;4933874;29;20052;-60
2023/09/08 02:11:42;;;;;;;17.45;9.15;;;;;;;14.56;100.00;101480.13;4934512;29;20110;-60
2023/09/08 02:14:09;;;;;;;13.82;8.13;;;;;;;14.54;100.00;101472.22;4933311;29;20063;-63
2023/09/08 02:16:35;;;;;;;18.13;9.07;;;;;;;14.44;100.00;101460.72;4933643;29;20056;-63
2023/09/08 02:19:02;;;;;;;14.52;8.77;;;;;;;14.49;100.00;101469.16;4932224;29;20047;-64
2023/09/08 02:21:29;;;;;;;16.20;8.82;;;;;;;14.46;100.00;101463.25;4932901;29;20039;-64
2023/09/08 02:23:55;;;;;;;15.15;11.27;;;;;;;14.36;100.00;101462.56;4932795;29;20047;-63
2023/09/08 02:26:22;;;;;;;20.23;13.77;;;;;;;14.46;100.00;101463.25;4933693;29;20420;-63
2023/09/08 02:28:48;;;;;;;25.73;14.63;;;;;;;14.40;100.00;101464.78;4933636;29;20054;-64
2023/09/08 02:31:15;;;;;;;22.52;15.43;;;;;;;14.35;100.00;101461.72;4933291;29;20118;-64
2023/09/08 02:33:42;;;;;;;23.23;14.60;;;;;;;14.35;100.00;101467.13;4932552;29;20111;-64
2023/09/08 02:36:08;;;;;;;20.95;14.95;;;;;;;14.27;100.00;101459.03;4933051;29;20138;-65
2023/09/08 02:38:35;;;;;;;21.02;13.50;;;;;;;14.31;100.00;101454.97;4933545;29;20534;-64
2023/09/08 02:41:02;;;;;;;17.48;12.00;;;;;;;14.32;100.00;101464.75;4932246;29;20047;-63
2023/09/08 02:43:29;;;;;;;20.23;10.60;;;;;;;14.21;100.00;101455.13;4932754;29;20047;-65
2023/09/08 02:45:56;;;;;;;17.88;11.13;;;;;;;14.24;100.00;101454.78;4931692;29;20051;-64
2023/09/08 02:48:22;;;;;;;19.17;10.75;;;;;;;14.22;100.00;101445.16;4932536;29;20052;-64
2023/09/08 02:50:50;;;;;;;15.73;10.20;;;;;;;14.24;100.00;101454.78;4933043;29;20167;-64
2023/09/08 02:53:17;;;;;;;16.13;10.82;;;;;;;14.19;100.00;101440.13;4932039;29;20082;-64
2023/09/08 02:55:43;;;;;;;15.43;10.68;;;;;;;14.18;100.00;101438.44;4932366;29;20508;-64
2023/09/08 02:58:10;;;;;;;14.82;9.77;;;;;;;14.06;100.00;101440.59;4915283;29;20055;-64
2023/09/08 03:00:36;;;;;;;18.92;9.77;;;;;;;13.98;100.00;101443.31;4931755;29;20051;-64
2023/09/08 03:03:04;;;;;;;16.05;10.45;;;;;;;13.93;100.00;101435.69;4932663;29;20051;-64
2023/09/08 03:05:31;;;;;;;19.73;9.90;;;;;;;13.81;100.00;101429.75;4931671;29;20397;-65
2023/09/08 03:07:58;;;;;;;15.38;9.90;;;;;;;13.81;100.00;101434.31;4931302;29;20060;-64
2023/09/08 03:10:28;;;;;;;14.38;9.20;;;;;;;13.72;100.00;101427.16;4931896;29;20048;-63
2023/09/08 03:12:54;;;;;;;19.98;10.13;;;;;;;13.78;100.00;101429.25;4930985;29;20055;-63
2023/09/08 03:15:21;;;;;;;16.27;9.82;;;;;;;13.76;100.00;101426.69;4932977;29;20044;-63
2023/09/08 03:17:47;;;;;;;18.33;10.10;;;;;;;13.68;100.00;101415.88;4932383;28;20114;-65
2023/09/08 03:20:14;;;;;;;17.45;9.20;;;;;;;13.64;100.00;101419.91;4931869;29;20043;-64
2023/09/08 03:22:41;;;;;;;17.75;9.45;;;;;;;13.69;100.00;101414.00;4932546;29;20055;-63
2023/09/08 03:25:07;;;;;;;19.52;10.07;;;;;;;13.66;100.00;101412.47;4932739;29;20047;-63
2023/09/08 03:27:34;;;;;;;15.30;10.02;;;;;;;13.70;100.00;101418.38;4931809;29;20075;-65
2023/09/08 03:30:00;;;;;;;17.63;9.98;;;;;;;13.65;100.00;101416.19;4932646;29;20098;-64
2023/09/08 03:32:28;;;;;;;16.00;10.18;;;;;;;13.61;100.00;101417.53;4931641;29;20055;-63
2023/09/08 03:34:55;;;;;;;14.90;9.63;;;;;;;13.56;100.00;101419.84;4931760;29;20070;-63
2023/09/08 03:37:22;;;;;;;23.20;9.93;;;;;;;13.63;100.00;101414.66;4932704;29;20389;-64
2023/09/08 03:39:48;;;;;;;18.05;11.75;;;;;;;13.52;100.00;101422.03;4932217;28;20051;-63
2023/09/08 03:42:15;;;;;;;17.88;10.55;;;;;;;13.52;100.00;101419.34;4931464;29;20071;-63
2023/09/08 03:44:41;;;;;;;17.35;9.82;;;;;;;13.54;100.00;101411.94;4931521;28;20052;-65
2023/09/08 03:47:08;;;;;;;17.90;9.30;;;;;;;13.51;100.00;101414.13;4931390;29;20044;-63
2023/09/08 03:49:35;;;;;;;19.98;10.48;;;;;;;13.57;100.00;101413.47;4931798;29;20056;-64
2023/09/08 03:52:01;;;;;;;15.25;9.57;;;;;;;13.54;100.00;101417.34;4932112;29;20479;-64
2023/09/08 03:54:28;;;;;;;19.60;10.25;;;;;;;13.51;100.00;101416.81;4931466;29;20097;-64
2023/09/08 03:56:54;;;;;;;14.40;9.75;;;;;;;13.32;100.00;101413.38;4931321;29;20131;-64
2023/09/08 03:59:21;;;;;;;16.77;9.98;;;;;;;13.37;100.00;101407.50;4935848;29;20448;-64
2023/09/08 04:01:48;;;;;;;17.27;10.18;;;;;;;13.28;100.00;101405.75;4935307;29;20443;-64
2023/09/08 04:04:14;;;;;;;13.35;9.85;;;;;;;13.17;100.00;101406.88;4935994;29;20114;-64
2023/09/08 04:06:41;;;;;;;22.52;11.23;;;;;;;13.04;100.00;101395.69;4934446;29;20063;-63
2023/09/08 04:09:07;;;;;;;14.73;10.25;;;;;;;12.94;100.00;101389.56;4935240;29;20043;-63
2023/09/08 04:11:34;;;;;;;22.52;11.38;;;;;;;12.85;100.00;101376.06;4935643;29;20051;-63
2023/09/08 04:14:01;;;;;;;14.85;10.65;;;;;;;12.74;100.00;101368.28;4934994;29;20054;-64
2023/09/08 04:16:28;;;;;;;21.80;10.73;;;;;;;12.75;100.00;101366.41;4934876;29;20051;-63
2023/09/08 04:18:54;;;;;;;18.42;10.75;;;;;;;12.70;100.00;101361.50;4935086;29;20103;-64
2023/09/08 04:21:22;;;;;;;17.42;11.23;;;;;;;12.69;100.00;101362.47;4936662;29;20051;-64
2023/09/08 04:23:48;;;;;;;17.27;10.43;;;;;;;12.66;100.00;101365.50;4935290;29;20051;-64
2023/09/08 04:26:15;;;;;;;16.00;11.45;;;;;;;12.62;100.00;101358.72;4935438;29;20044;-65
2023/09/08 04:28:42;;;;;;;18.35;10.43;;;;;;;12.69;100.00;101365.16;4935928;29;20048;-64
2023/09/08 04:31:08;;;;;;;17.85;10.65;;;;;;;12.63;100.00;101350.50;4935781;29;20081;-65
2023/09/08 04:33:35;;;;;;;20.88;11.57;;;;;;;12.52;100.00;101348.09;4935253;29;20062;-65
2023/09/08 04:36:02;;;;;;;14.32;11.00;;;;;;;12.34;100.00;101331.97;4934504;29;20098;-65
2023/09/08 04:38:30;;;;;;;18.15;11.32;;;;;;;12.26;100.00;101323.00;4935380;29;20135;-62
2023/09/08 04:40:56;;;;;;;23.08;11.63;;;;;;;12.36;100.00;101321.06;4934002;29;20051;-62
2023/09/08 04:43:23;;;;;;;16.75;11.68;;;;;;;12.26;100.00;101328.38;4935034;29;20567;-60
2023/09/08 04:45:50;;;;;;;18.67;10.77;;;;;;;12.21;100.00;101311.84;4934630;29;20043;-61
2023/09/08 04:48:17;;;;;;;21.08;11.48;;;;;;;12.19;100.00;101305.78;4932982;29;20448;-66
2023/09/08 04:50:44;;;;;;;18.70;11.93;;;;;;;12.02;100.00;101300.28;4916986;29;20056;-66
2023/09/08 04:53:10;;;;;;;19.85;11.48;;;;;;;12.17;100.00;101297.88;4932305;29;20459;-64
2023/09/08 04:55:37;;;;;;;16.65;11.38;;;;;;;11.99;100.00;101289.00;4934078;29;20126;-64
2023/09/08 04:58:04;;;;;;;20.40;11.65;;;;;;;11.33;100.00;101190.78;4933981;28;20043;-64
2023/09/08 05:00:31;;;;;;;14.77;10.73;;;;;;;11.01;100.00;101143.84;4932879;29;20123;-66
2023/09/08 05:02:57;;;;;;;16.35;11.40;;;;;;;11.29;100.00;101176.81;4917020;29;20052;-65
2023/09/08 05:05:24;;;;;;;19.02;11.98;;;;;;;11.35;100.00;101186.97;4934413;29;20118;-63
2023/09/08 05:07:53;;;;;;;20.33;12.18;;;;;;;11.02;100.00;101150.03;4935664;29;20048;-58
2023/09/08 05:10:19;;;;;;;17.38;10.82;;;;;;;11.07;100.00;101142.38;4935137;29;20385;-59
2023/09/08 05:12:46;;;;;;;25.10;12.65;;;;;;;11.10;100.00;101145.63;4935275;29;20051;-58
2023/09/08 05:15:15;;;;;;;20.25;10.95;;;;;;;11.11;100.00;101152.66;4935512;29;20052;-58
2023/09/08 05:17:42;;;;;;;19.00;11.32;;;;;;;11.09;100.00;101145.75;4936080;29;20059;-58
2023/09/08 05:20:09;;;;;;;22.05;12.77;;;;;;;11.10;100.00;101152.78;4935538;29;20048;-58
2023/09/08 05:22:36;;;;;;;23.98;12.57;;;;;;;10.98;100.00;101134.22;4935692;29;20052;-60
2023/09/08 05:25:03;;;;;;;22.30;12.30;;;;;;;10.96;100.00;101138.06;4918033;29;20118;-65
2023/09/08 05:27:31;;;;;;;25.50;12.40;;;;;;;10.93;100.00;101115.06;4933098;29;20436;-66
2023/09/08 05:29:58;;;;;;;20.58;11.75;;;;;;;11.33;100.00;101167.47;4933427;29;20496;-64
2023/09/08 05:32:25;;;;;;;19.38;12.50;;;;;;;11.74;100.00;101218.06;4932671;29;20051;-64
2023/09/08 05:34:52;;;;;;;21.23;11.65;;;;;;;11.99;100.00;101243.28;4934356;29;20048;-66
2023/09/08 05:37:18;;;;;;;23.30;11.27;;;;;;;12.03;100.00;101245.47;4932867;29;20043;-66
2023/09/08 05:39:45;;;;;;;17.90;11.40;;;;;;;12.13;100.00;101264.22;4932523;29;20052;-65
2023/09/08 05:42:12;;;;;;;23.40;12.15;;;;;;;12.15;100.00;101268.44;4932683;29;20142;-65
2023/09/08 05:44:39;;;;;;;23.15;11.55;;;;;;;12.18;100.00;101272.69;4932254;29;20468;-66
2023/09/08 05:47:05;;;;;;;22.20;12.00;;;;;;;12.20;100.00;101272.50;4933033;29;20102;-65
2023/09/08 05:49:32;;;;;;;17.75;11.65;;;;;;;12.21;100.00;101279.56;4932850;29;20051;-67
2023/09/08 05:52:03;;;;;;;17.92;10.63;;;;;;;12.29;100.00;101282.34;4931099;29;20052;-61
2023/09/08 05:54:30;;;;;;;19.08;11.18;;;;;;;12.31;100.00;101274.94;4931662;29;20047;-62
2023/09/08 05:56:56;;;;;;;17.63;11.95;;;;;;;12.35;100.00;101287.09;4931298;29;20053;-62
2023/09/08 05:59:23;;;;;;;24.63;11.90;;;;;;;12.55;100.00;101298.47;4931626;29;20469;-63
2023/09/08 06:01:50;;;;;;;17.83;11.30;;;;;;;12.76;100.00;101322.31;4931251;29;20107;-62
2023/09/08 06:04:16;;;;;;;18.23;10.90;;;;;;;12.92;100.00;101333.19;4932552;29;20186;-62
2023/09/08 06:06:43;;;;;;;18.73;11.60;;;;;;;13.19;100.00;101358.25;4932532;29;20353;-61
2023/09/08 06:09:12;;;;;;;21.50;11.38;;;;;;;13.22;100.00;101372.25;4931386;29;20078;-61
2023/09/08 06:11:38;;;;;;;22.15;11.75;;;;;;;13.17;100.00;101377.25;4913135;29;20107;-62
2023/09/08 06:14:05;;;;;;;16.33;11.43;;;;;;;13.20;100.00;101378.78;4928063;29;20068;-61
2023/09/08 06:16:31;;;;;;;19.70;11.20;;;;;;;13.26;100.00;101373.59;4932852;29;20051;-61
2023/09/08 06:18:58;;;;;;;17.45;11.10;;;;;;;13.57;100.00;101387.34;4932650;29;20049;-61
2023/09/08 06:21:27;;;;;;;19.33;11.13;;;;;;;13.76;100.00;101407.81;4932422;29;20048;-61
2023/09/08 06:23:53;;;;;;;22.92;11.18;;;;;;;13.89;100.00;101420.84;4933824;29;20043;-61
2023/09/08 06:26:20;;;;;;;16.75;11.52;;;;;;;14.10;100.00;101419.53;4932953;29;20407;-61
2023/09/08 06:28:47;;;;;;;22.38;11.52;;;;;;;14.30;100.00;101429.84;4933079;29;20051;-62
2023/09/08 06:31:14;;;;;;;17.33;10.35;;;;;;;14.54;100.00;101441.66;4932477;29;20054;-62
2023/09/08 06:33:41;;;;;;;15.90;10.63;;;;;;;14.84;100.00;101456.34;4933304;29;20152;-62
2023/09/08 06:36:08;;;;;;;14.38;9.80;;;;;;;14.94;100.00;101467.81;4933291;29;20423;-61
2023/09/08 06:38:34;;;;;;;21.00;10.45;;;;;;;15.01;100.00;101473.38;4932990;29;20056;-62
2023/09/08 06:41:08;;;;;;;19.38;10.32;;;;;;;15.14;100.00;101473.72;4933142;29;20048;-62
2023/09/08 06:43:35;;;;;;;20.23;9.88;;;;;;;15.38;100.00;101469.25;4932983;29;20190;-61
2023/09/08 06:46:04;;;;;;;24.33;10.43;;;;;;;15.65;100.00;101482.38;4932729;29;20471;-62
2023/09/08 06:48:31;;;;;;;19.20;9.85;;;;;;;16.02;100.00;101483.56;4922660;29;20062;-61
2023/09/08 06:50:57;;;;;;;19.50;8.63;;;;;;;16.21;100.00;101487.69;4932415;29;20059;-61
2023/09/08 06:53:24;;;;;;;18.77;8.60;;;;;;;16.42;100.00;101482.44;4933398;29;20047;-62
2023/09/08 06:55:52;;;;;;;20.17;9.93;;;;;;;16.77;100.00;101482.88;4932879;29;20054;-61
2023/09/08 06:58:18;;;;;;;16.63;9.32;;;;;;;17.00;100.00;101487.44;4932439;29;20373;-61
2023/09/08 07:00:45;;;;;;;14.10;9.23;;;;;;;17.13;100.00;101483.06;4931530;29;20485;-61
2023/09/08 07:03:11;;;;;;;14.57;8.13;;;;;;;17.50;100.00;101485.91;4931555;29;20485;-61
2023/09/08 07:05:41;;;;;;;14.30;9.32;;;;;;;17.93;100.00;101497.75;4932486;29;20044;-61
2023/09/08 07:08:08;;;;;;;14.48;7.88;;;;;;;18.12;100.00;101500.91;4932210;29;20083;-62
2023/09/08 07:10:35;;;;;;;14.15;8.10;;;;;;;18.57;100.00;101496.19;4932132;29;20087;-60
2023/09/08 07:13:01;;;;;;;16.92;7.88;;;;;;;18.68;100.00;101493.75;4931082;29;20079;-62
2023/09/08 07:15:28;;;;;;;13.68;8.35;;;;;;;18.99;100.00;101498.03;4930955;29;20107;-61
2023/09/08 07:17:55;;;;;;;21.73;8.27;;;;;;;19.68;100.00;101494.53;4931000;29;20440;-60
2023/09/08 07:20:22;;;;;;;19.27;7.40;;;;;;;19.83;100.00;101494.38;4930672;29;20445;-62
2023/09/08 07:22:49;;;;;;;14.02;7.47;;;;;;;20.04;100.00;101499.72;4931643;29;20047;-62
2023/09/08 07:25:15;;;;;;;15.07;7.32;;;;;;;20.28;100.00;101500.19;4930629;29;20397;-61
2023/09/08 07:27:42;;;;;;;12.93;7.72;;;;;;;20.28;100.00;101490.16;4931009;29;20043;-61
2023/09/08 07:30:09;;;;;;;18.20;8.25;;;;;;;20.36;100.00;101492.69;4931201;29;20058;-62
2023/09/08 07:32:35;;;;;;;21.15;8.00;;;;;;;20.82;96.35;101497.38;4930213;29;20051;-62
2023/09/08 07:35:02;;;;;;;17.83;8.10;;;;;;;21.31;89.80;101495.25;4931013;29;20516;-61
2023/09/08 07:37:29;;;;;;;14.82;7.72;;;;;;;21.61;83.75;101495.63;4931205;29;20465;-61
2023/09/08 07:39:55;;;;;;;13.00;7.43;;;;;;;22.09;81.22;101493.34;4931629;29;20127;-60
2023/09/08 07:42:25;;;;;;;18.45;7.03;;;;;;;22.42;75.70;101491.47;4932209;29;20048;-61
2023/09/08 07:44:51;;;;;;;17.25;7.18;;;;;;;22.89;72.17;101492.81;4931319;29;20127;-63
2023/09/08 07:47:18;;;;;;;15.20;8.15;;;;;;;23.00;70.84;101496.72;4930221;29;20107;-62
2023/09/08 07:49:47;;;;;;;15.63;6.97;;;;;;;23.44;68.77;101490.19;4930141;29;20055;-61
2023/09/08 07:52:14;;;;;;;13.95;7.30;;;;;;;23.29;67.50;101491.63;4930732;29;20047;-63
2023/09/08 07:54:41;;;;;;;20.55;7.70;;;;;;;23.67;67.29;101484.00;4931189;29;20058;-62
2023/09/08 07:57:07;;;;;;;7.85;6.85;;;;;;;23.97;64.83;101496.97;4930741;29;20130;-61
2023/09/08 07:59:34;;;;;;;19.92;6.97;;;;;;;24.26;62.24;101497.19;4929916;29;20047;-61
2023/09/08 08:02:03;;;;;;;14.93;6.75;;;;;;;23.86;63.68;101495.00;4913930;29;20146;-60
2023/09/08 08:04:30;;;;;;;11.82;6.90;;;;;;;24.07;62.19;101500.00;4913698;29;20071;-61
2023/09/08 08:06:56;;;;;;;21.23;7.10;;;;;;;23.81;64.92;101505.81;4930762;29;20134;-59
2023/09/08 08:09:23;;;;;;;19.55;6.80;;;;;;;24.78;60.98;101503.81;4929774;29;20055;-61
2023/09/08 08:11:50;;;;;;;14.57;6.40;;;;;;;24.71;59.55;101499.50;4931203;29;20051;-62
2023/09/08 08:14:17;;;;;;;19.67;7.35;;;;;;;25.30;58.25;101508.63;4930597;29;20468;-62
2023/09/08 08:16:43;;;;;;;11.00;6.20;;;;;;;25.25;56.46;101501.13;4929302;29;20416;-63
2023/09/08 08:19:11;;;;;;;15.02;6.65;;;;;;;25.12;54.82;101502.19;4929998;29;20470;-61
2023/09/08 08:21:38;;;;;;;15.68;6.32;;;;;;;24.86;55.54;101486.19;4929658;29;20115;-61
2023/09/08 08:24:05;;;;;;;11.85;6.13;;;;;;;23.91;57.23;101495.16;4931151;29;20091;-61
2023/09/08 08:26:32;;;;;;;11.38;5.40;;;;;;;24.12;57.71;101485.59;4930499;29;20043;-61
2023/09/08 08:28:59;;;;;;;17.92;6.75;;;;;;;24.17;57.95;101483.84;4930646;29;20055;-61
2023/09/08 08:31:26;;;;;;;16.02;6.47;;;;;;;24.91;56.56;101483.53;4930404;29;20217;-60
2023/09/08 08:33:53;;;;;;;15.18;5.95;;;;;;;24.90;55.75;101479.97;4930746;29;20082;-60
2023/09/08 08:36:19;;;;;;;11.25;6.43;;;;;;;25.19;54.31;101487.50;4928275;29;20043;-60
2023/09/08 08:38:46;;;;;;;10.98;6.45;;;;;;;25.98;51.93;101485.09;4931753;29;20496;-61
2023/09/08 08:41:12;;;;;;;14.18;5.68;;;;;;;25.79;52.06;101479.81;4929761;29;20067;-61
2023/09/08 08:43:40;;;;;;;17.15;6.57;;;;;;;25.72;51.45;101489.25;4930790;29;20052;-60
2023/09/08 08:46:07;;;;;;;18.55;6.50;;;;;;;25.94;50.98;101483.94;4933805;29;20447;-61
2023/09/08 08:48:35;;;;;;;13.85;5.88;;;;;;;25.93;49.21;101477.59;4934046;29;20059;-61
2023/09/08 08:51:03;;;;;;;11.30;5.90;;;;;;;24.99;51.55;101480.47;4932366;29;20099;-61
2023/09/08 08:53:31;;;;;;;10.10;5.45;;;;;;;25.27;51.66;101481.66;4934068;29;20115;-61
2023/09/08 08:55:59;;;;;;;11.23;6.07;;;;;;;25.79;51.44;101476.19;4933393;29;20142;-62
2023/09/08 08:58:28;;;;;;;15.95;5.57;;;;;;;25.95;49.52;101467.19;4935137;29;20062;-60
2023/09/08 09:00:57;;;;;;;17.33;6.50;;;;;;;26.35;49.60;101463.56;4935273;29;20448;-61
2023/09/08 09:03:27;;;;;;;14.70;8.30;;;;;;;27.18;47.77;101467.41;4934129;29;20066;-60
2023/09/08 09:05:54;;;;;;;27.70;12.15;;;;;;;28.04;45.26;101469.63;4934873;29;20485;-64
2023/09/08 09:08:23;;;;;;;17.02;6.10;;;;;;;28.50;44.03;101469.25;4934864;29;20047;-65
2023/09/08 09:10:52;;;;;;;8.13;5.27;;;;;;;28.81;41.80;101467.59;4933940;29;20070;-65
2023/09/08 09:13:19;;;;;;;13.13;5.80;;;;;;;29.27;41.52;101468.72;4934034;29;20055;-66
2023/09/08 09:15:46;;;;;;;8.05;5.03;;;;;;;29.85;39.45;101468.72;4933327;29;20421;-65
2023/09/08 09:18:13;;;;;;;9.20;4.95;;;;;;;29.93;38.51;101464.59;4934379;29;20059;-64
2023/09/08 09:20:52;;;;;;;10.13;5.22;;;;;;;30.50;37.87;101466.34;4935209;28;20460;-65
2023/09/08 09:23:33;;;;;;;10.88;5.22;;;;;;;31.29;37.37;101464.06;4934224;29;20047;-64
2023/09/08 09:26:03;;;;;;;13.65;5.20;;;;;;;31.08;36.99;101458.59;4935157;29;20411;-66
2023/09/08 09:28:30;;;;;;;;;;;;;;;30.87;37.05;101462.47;4935366;28;20063;-65
2023/09/08 09:30:57;;;;;;;14.20;5.80;;;;;;;32.75;35.34;101459.88;4934820;29;19962;-65
2023/09/08 09:33:23;;;;;;;5.45;4.47;;;;;;;32.18;34.32;101459.50;4934450;29;20051;-65
2023/09/08 09:35:53;;;;;;;10.35;4.40;;;;;;;32.19;34.30;101456.44;4933969;29;20403;-65
2023/09/08 09:38:21;;;;;;;9.05;5.03;;;;;;;32.07;34.41;101449.59;4934473;29;20193;-66
2023/09/08 09:40:48;;;;;;;13.38;5.22;;;;;;;32.88;33.51;101456.41;4934201;29;20686;-62
2023/09/08 09:43:16;;;;;;;9.85;4.85;;;;;;;34.41;31.16;101462.00;4933810;29;20986;-61
2023/09/08 09:45:43;;;;;;;7.10;4.63;;;;;;;33.56;31.93;101456.25;4933745;29;20488;-61
2023/09/08 09:48:10;;;;;;;10.35;4.75;;;;;;;33.62;31.93;101451.44;4933991;29;20130;-62
2023/09/08 09:50:43;;;;;;;8.07;4.68;;;;;;;34.31;30.48;101446.25;4933368;29;20052;-65
2023/09/08 09:53:14;;;;;;;9.55;4.80;;;;;;;34.41;30.51;101456.44;4934659;29;20054;-65
2023/09/08 09:55:43;;;;;;;12.30;5.18;;;;;;;35.03;29.62;101445.84;4933528;29;20052;-65
2023/09/08 09:58:10;;;;;;;8.50;4.80;;;;;;;32.84;31.91;101444.25;4934779;29;20083;-65
2023/09/08 10:00:41;;;;;;;9.98;4.80;;;;;;;33.44;31.93;101446.66;4934421;29;20051;-65
2023/09/08 10:03:08;;;;;;;9.18;5.18;;;;;;;33.34;31.36;101439.25;4919166;29;20048;-60
2023/09/08 10:05:36;;;;;;;12.65;4.70;;;;;;;33.57;31.44;101430.06;4935524;28;20460;-60
2023/09/08 10:08:04;;;;;;;13.75;4.78;;;;;;;32.06;32.89;101432.13;4935183;29;20056;-60
2023/09/08 10:10:32;;;;;;;9.13;5.00;;;;;;;31.10;34.41;101427.84;4935831;29;20075;-61
2023/09/08 10:13:05;;;;;;;10.38;5.57;;;;;;;30.27;35.67;101426.22;4935350;29;20055;-61
2023/09/08 10:15:32;;;;;;;10.00;5.30;;;;;;;28.65;38.47;101427.97;4935108;29;20079;-58
2023/09/08 10:18:03;;;;;;;9.07;5.07;;;;;;;28.64;39.21;101426.31;4935127;29;20052;-60
2023/09/08 10:20:31;;;;;;;17.38;5.85;;;;;;;29.11;39.39;101428.28;4934449;29;20047;-59
2023/09/08 10:23:03;;;;;;;9.40;5.07;;;;;;;29.85;37.59;101430.81;4935320;29;20464;-60
2023/09/08 10:25:35;;;;;;;12.18;4.97;;;;;;;28.88;38.83;101424.00;4934140;29;20092;-60
2023/09/08 10:28:03;;;;;;;12.88;5.40;;;;;;;27.63;41.00;101425.03;4934973;29;20629;-60
2023/09/08 10:30:31;;;;;;;11.90;5.13;;;;;;;28.57;38.84;101422.94;4935208;29;20087;-60
2023/09/08 10:32:59;;;;;;;14.93;5.50;;;;;;;29.07;38.92;101414.19;4934882;29;20067;-61
2023/09/08 10:35:26;;;;;;;14.38;5.53;;;;;;;28.75;39.91;101419.75;4934851;29;20043;-62
2023/09/08 10:38:25;;;;;;;12.25;4.38;;;;;;;29.19;37.52;101413.97;4934799;29;20047;-62
2023/09/08 10:40:53;;;;;;;12.50;4.93;;;;;;;29.82;37.40;101413.94;4933770;29;20658;-62
2023/09/08 10:43:20;;;;;;;8.38;4.43;;;;;;;30.02;37.44;101415.97;4932746;29;20171;-61
2023/09/08 10:45:47;;;;;;;9.85;5.07;;;;;;;28.78;37.75;101407.34;4934213;29;20112;-61
2023/09/08 10:48:16;;;;;;;10.18;5.35;;;;;;;27.68;40.47;101413.22;4934052;29;20059;-62
2023/09/08 10:50:43;;;;;;;8.93;5.00;;;;;;;28.15;39.74;101410.69;4933998;28;20099;-62
2023/09/08 10:53:15;;;;;;;12.70;4.88;;;;;;;27.84;39.79;101408.72;4933913;29;20134;-62
2023/09/08 10:55:47;;;;;;;8.68;4.10;;;;;;;28.49;38.26;101413.19;4933813;29;20536;-62
2023/09/08 10:58:33;;;;;;;9.10;4.78;;;;;;;28.87;38.02;101414.88;4933242;29;20062;-62
2023/09/08 11:01:01;;;;;;;6.45;3.95;;;;;;;28.99;37.49;101411.94;4934060;29;20048;-61
2023/09/08 11:03:43;;;;;;;9.23;4.45;;;;;;;29.46;36.37;101411.06;4934186;28;20055;-63
2023/09/08 11:06:15;;;;;;;9.70;3.90;;;;;;;28.21;37.50;101408.81;4933035;28;20044;-62
2023/09/08 11:08:42;;;;;;;7.67;4.17;;;;;;;28.90;37.14;101407.97;4931773;29;20518;-64
2023/09/08 11:11:11;;;;;;;9.73;4.15;;;;;;;28.94;37.00;101402.75;4931825;29;20078;-64
2023/09/08 11:13:40;;;;;;;8.13;4.07;;;;;;;29.16;35.89;101406.22;4931317;29;20047;-65
2023/09/08 11:16:08;;;;;;;7.82;4.28;;;;;;;28.36;36.87;101408.94;4921672;29;20052;-64